Time;durP1;ratioP1;P1;durP2;ratioP2;P2;SDS_P1;SDS_P2;PMS_P1;PMS_P2;Temp;Humidity;BMP_temperature;BMP_pressure;BME280_temperature;BME280_humidity;BME280_pressure;Samples;Min_cycle;Max_cycle;Signal;HPM_P1;HPM_P2
2022/06/11 00:01:52;;;;;;;4.93;2.50;;;;;;;;;;5063282;28;20198;-50
2022/06/11 00:04:23;;;;;;;3.60;2.40;;;;;;;;;;5063134;28;20199;-50
2022/06/11 00:06:51;;;;;;;4.63;2.50;;;;;;;;;;5059883;28;20332;-50
2022/06/11 00:09:18;;;;;;;2.60;2.40;;;;;;;;;;5046486;28;20208;-50
2022/06/11 00:11:44;;;;;;;2.77;2.57;;;;;;;;;;5065968;28;20179;-50
2022/06/11 00:14:11;;;;;;;3.13;2.57;;;;;;;;;;5047201;28;20523;-50
2022/06/11 00:16:37;;;;;;;3.10;2.73;;;;;;;;;;5062983;28;20581;-50
2022/06/11 00:19:06;;;;;;;2.80;2.47;;;;;;;;;;5046568;28;20349;-50
2022/06/11 00:21:33;;;;;;;3.23;2.70;;;;;;;;;;5064915;28;20186;-50
2022/06/11 00:24:00;;;;;;;3.17;2.87;;;;;;;;;;5063967;28;20537;-50
2022/06/11 00:26:27;;;;;;;4.47;2.97;;;;;;;;;;5047432;28;20281;-50
2022/06/11 00:28:53;;;;;;;5.27;3.10;;;;;;;;;;5044350;28;20565;-50
2022/06/11 00:31:19;;;;;;;5.33;3.10;;;;;;;;;;5063857;28;20189;-50
2022/06/11 00:33:45;;;;;;;3.10;2.80;;;;;;;;;;5046660;28;20214;-54
2022/06/11 00:36:12;;;;;;;3.77;2.77;;;;;;;;;;5064444;28;20252;-50
2022/06/11 00:38:39;;;;;;;3.23;2.67;;;;;;;;;;5042474;28;20504;-50
2022/06/11 00:41:06;;;;;;;4.27;2.90;;;;;;;;;;5069266;28;20183;-50
2022/06/11 00:43:32;;;;;;;5.60;3.27;;;;;;;;;;5030535;28;20318;-50
2022/06/11 00:46:22;;;;;;;3.97;3.17;;;;;;;;;;5065320;28;20202;-50
2022/06/11 00:48:48;;;;;;;3.23;2.93;;;;;;;;;;5062890;28;20177;-50
2022/06/11 00:51:23;;;;;;;6.30;2.90;;;;;;;;;;5046336;28;20766;-51
2022/06/11 00:53:51;;;;;;;3.17;2.70;;;;;;;;;;5063784;28;20275;-51
2022/06/11 00:56:21;;;;;;;4.10;2.90;;;;;;;;;;5047575;28;20183;-50
2022/06/11 00:58:49;;;;;;;2.97;2.67;;;;;;;;;;5062333;28;20518;-50
2022/06/11 01:01:17;;;;;;;3.93;2.67;;;;;;;;;;5061611;28;20170;-50
2022/06/11 01:03:44;;;;;;;6.37;3.97;;;;;;;;;;5046963;28;20206;-50
2022/06/11 01:06:10;;;;;;;3.93;2.80;;;;;;;;;;5058936;28;20180;-50
2022/06/11 01:08:51;;;;;;;5.77;2.53;;;;;;;;;;5061591;28;20637;-49
2022/06/11 01:11:36;;;;;;;3.33;3.03;;;;;;;;;;5049336;28;20175;-51
2022/06/11 01:14:24;;;;;;;2.60;2.40;;;;;;;;;;5065755;28;20192;-50
2022/06/11 01:17:06;;;;;;;3.60;2.97;;;;;;;;;;5048021;28;20656;-50
2022/06/11 01:19:45;;;;;;;4.73;3.43;;;;;;;;;;5045934;28;20191;-50
2022/06/11 01:22:11;;;;;;;4.13;2.83;;;;;;;;;;5042576;28;20212;-51
2022/06/11 01:24:56;;;;;;;3.90;2.70;;;;;;;;;;5061403;28;20760;-51
2022/06/11 01:27:38;;;;;;;3.80;2.90;;;;;;;;;;5042509;28;20528;-50
2022/06/11 01:30:04;;;;;;;4.43;3.00;;;;;;;;;;5048227;28;20177;-50
2022/06/11 01:32:36;;;;;;;3.10;2.80;;;;;;;;;;5045801;28;20271;-50
2022/06/11 01:35:02;;;;;;;4.67;2.83;;;;;;;;;;5060789;28;20671;-50
2022/06/11 01:37:31;;;;;;;3.57;3.13;;;;;;;;;;5061790;28;20234;-51
2022/06/11 01:40:06;;;;;;;4.13;3.10;;;;;;;;;;5063861;28;20200;-50
2022/06/11 01:42:45;;;;;;;3.63;2.63;;;;;;;;;;5041340;28;20211;-51
2022/06/11 01:45:15;;;;;;;3.03;2.70;;;;;;;;;;5046957;28;20629;-52
2022/06/11 01:47:42;;;;;;;3.83;2.70;;;;;;;;;;5062287;28;20195;-51
2022/06/11 01:50:09;;;;;;;4.07;3.10;;;;;;;;;;5046524;28;20689;-51
2022/06/11 01:52:54;;;;;;;3.17;2.53;;;;;;;;;;5060874;28;20203;-51
2022/06/11 01:55:26;;;;;;;3.83;3.20;;;;;;;;;;5044765;28;20224;-51
2022/06/11 01:58:08;;;;;;;3.63;2.80;;;;;;;;;;5061553;28;20181;-51
2022/06/11 02:00:47;;;;;;;2.83;2.60;;;;;;;;;;5044370;28;20225;-50
2022/06/11 02:03:23;;;;;;;5.73;5.27;;;;;;;;;;5063764;28;20205;-51
2022/06/11 02:05:58;;;;;;;3.17;2.87;;;;;;;;;;5063625;28;20168;-51
2022/06/11 02:08:27;;;;;;;3.40;2.77;;;;;;;;;;5045895;28;20261;-50
2022/06/11 02:11:02;;;;;;;3.23;2.67;;;;;;;;;;5061742;28;20201;-50
2022/06/11 02:13:35;;;;;;;3.17;2.57;;;;;;;;;;5062209;28;20216;-50
2022/06/11 02:16:18;;;;;;;3.20;2.73;;;;;;;;;;5030146;28;20567;-50
2022/06/11 02:18:47;;;;;;;4.67;2.77;;;;;;;;;;5062457;28;20279;-50
2022/06/11 02:21:15;;;;;;;4.20;2.97;;;;;;;;;;5062339;28;20215;-50
2022/06/11 02:23:50;;;;;;;3.10;2.80;;;;;;;;;;5062982;28;20207;-50
2022/06/11 02:26:22;;;;;;;3.33;3.00;;;;;;;;;;5055606;28;20181;-50
2022/06/11 02:28:49;;;;;;;3.70;3.13;;;;;;;;;;5055605;28;20173;-50
2022/06/11 02:31:18;;;;;;;3.43;2.80;;;;;;;;;;5051995;28;20180;-50
2022/06/11 02:33:44;;;;;;;3.33;3.03;;;;;;;;;;5064100;28;20655;-50
2022/06/11 02:36:11;;;;;;;3.17;2.87;;;;;;;;;;5045203;28;20581;-50
2022/06/11 02:38:39;;;;;;;3.23;2.77;;;;;;;;;;5044676;28;20197;-50
2022/06/11 02:41:10;;;;;;;5.37;3.67;;;;;;;;;;5046729;28;20257;-50
2022/06/11 02:43:36;;;;;;;3.70;2.83;;;;;;;;;;5053763;28;20778;-50
2022/06/11 02:46:40;;;;;;;5.60;3.50;;;;;;;;;;5087747;28;20489;-50
2022/06/11 02:48:51;;;;;;;4.97;3.77;;;;;;;;;;5071330;28;20717;-49
2022/06/11 02:51:18;;;;;;;4.57;3.37;;;;;;;;;;5087114;28;20219;-50
2022/06/11 02:53:44;;;;;;;5.47;3.40;;;;;;;;;;5085490;28;20628;-50
2022/06/11 02:56:11;;;;;;;3.27;2.97;;;;;;;;;;5087343;28;20328;-50
2022/06/11 02:58:37;;;;;;;6.20;3.33;;;;;;;;;;5079455;28;20181;-50
2022/06/11 03:01:04;;;;;;;4.87;3.43;;;;;;;;;;5081591;28;20176;-50
2022/06/11 03:03:30;;;;;;;3.17;2.90;;;;;;;;;;5095866;28;20190;-50
2022/06/11 03:05:58;;;;;;;4.90;4.47;;;;;;;;;;5065240;28;20250;-49
2022/06/11 03:08:24;;;;;;;4.20;3.30;;;;;;;;;;5080524;28;20190;-50
2022/06/11 03:10:54;;;;;;;3.50;3.20;;;;;;;;;;5081683;28;20205;-50
2022/06/11 03:13:25;;;;;;;3.53;3.23;;;;;;;;;;5059925;28;20634;-50
2022/06/11 03:15:51;;;;;;;6.10;3.20;;;;;;;;;;5075429;28;20173;-50
2022/06/11 03:18:18;;;;;;;5.77;5.27;;;;;;;;;;5075104;28;20263;-50
2022/06/11 03:20:44;;;;;;;5.40;3.60;;;;;;;;;;5083926;28;20262;-49
2022/06/11 03:23:11;;;;;;;4.47;3.10;;;;;;;;;;5086447;28;20413;-50
2022/06/11 03:25:38;;;;;;;3.47;2.97;;;;;;;;;;5096312;28;20515;-49
2022/06/11 03:28:08;;;;;;;3.20;2.80;;;;;;;;;;5067846;28;20301;-50
2022/06/11 03:30:34;;;;;;;4.47;2.97;;;;;;;;;;5065787;28;20179;-50
2022/06/11 03:33:00;;;;;;;4.30;3.00;;;;;;;;;;5084878;28;20186;-50
2022/06/11 03:35:27;;;;;;;4.77;3.40;;;;;;;;;;5096354;28;20175;-50
2022/06/11 03:37:53;;;;;;;3.23;2.67;;;;;;;;;;5059265;28;20298;-50
2022/06/11 03:40:19;;;;;;;5.07;4.67;;;;;;;;;;5097071;28;20184;-49
2022/06/11 03:42:45;;;;;;;2.97;2.77;;;;;;;;;;5068240;28;20201;-50
2022/06/11 03:45:12;;;;;;;3.27;2.70;;;;;;;;;;5083306;28;20188;-50
2022/06/11 03:47:40;;;;;;;3.63;2.97;;;;;;;;;;5085707;28;20544;-55
2022/06/11 03:50:10;;;;;;;3.47;3.17;;;;;;;;;;5096609;28;20310;-50
2022/06/11 03:52:37;;;;;;;5.63;3.53;;;;;;;;;;5061658;28;20279;-51
2022/06/11 03:55:03;;;;;;;3.70;2.90;;;;;;;;;;5092641;28;20211;-50
2022/06/11 03:57:36;;;;;;;4.10;3.23;;;;;;;;;;5083675;28;20638;-50
2022/06/11 04:00:08;;;;;;;4.37;3.60;;;;;;;;;;5067699;28;20164;-50
2022/06/11 04:02:35;;;;;;;3.40;3.10;;;;;;;;;;5066580;28;20627;-50
2022/06/11 04:05:01;;;;;;;5.10;3.17;;;;;;;;;;5086368;28;20216;-50
2022/06/11 04:07:27;;;;;;;4.03;2.90;;;;;;;;;;5084536;28;21013;-50
2022/06/11 04:09:53;;;;;;;3.73;3.17;;;;;;;;;;5058110;28;20555;-50
2022/06/11 04:12:19;;;;;;;3.20;2.90;;;;;;;;;;5086280;28;20202;-50
2022/06/11 04:14:47;;;;;;;3.97;3.57;;;;;;;;;;5097523;28;20523;-50
2022/06/11 04:17:15;;;;;;;3.20;2.80;;;;;;;;;;5082402;28;20541;-50
2022/06/11 04:19:43;;;;;;;3.60;3.40;;;;;;;;;;5064472;28;20180;-51
2022/06/11 04:22:09;;;;;;;3.10;2.80;;;;;;;;;;5066963;28;20182;-51
2022/06/11 04:24:36;;;;;;;3.13;2.83;;;;;;;;;;5063432;28;20214;-49
2022/06/11 04:27:04;;;;;;;3.13;2.80;;;;;;;;;;5087758;28;20176;-49
2022/06/11 04:29:32;;;;;;;4.33;3.93;;;;;;;;;;5084374;28;20185;-50
2022/06/11 04:31:59;;;;;;;3.93;2.93;;;;;;;;;;5062025;28;20270;-49
2022/06/11 04:34:26;;;;;;;4.20;3.20;;;;;;;;;;5085600;28;20180;-50
2022/06/11 04:36:53;;;;;;;4.63;3.00;;;;;;;;;;5084295;28;20168;-50
2022/06/11 04:39:21;;;;;;;3.97;3.13;;;;;;;;;;5091435;28;20175;-50
2022/06/11 04:41:48;;;;;;;4.07;3.00;;;;;;;;;;5092699;28;20184;-50
2022/06/11 04:44:15;;;;;;;3.20;2.67;;;;;;;;;;5087918;28;20518;-49
2022/06/11 04:46:44;;;;;;;4.43;3.23;;;;;;;;;;5064818;28;20180;-49
2022/06/11 04:49:10;;;;;;;5.13;2.67;;;;;;;;;;5068959;28;20183;-50
2022/06/11 04:51:36;;;;;;;4.47;3.07;;;;;;;;;;5085113;28;20208;-50
2022/06/11 04:54:03;;;;;;;4.80;3.00;;;;;;;;;;5082805;28;20241;-50
2022/06/11 04:56:30;;;;;;;3.43;3.13;;;;;;;;;;5092692;28;20180;-50
2022/06/11 04:58:56;;;;;;;3.47;2.83;;;;;;;;;;5066924;28;20780;-50
2022/06/11 05:01:23;;;;;;;2.77;2.57;;;;;;;;;;5063437;28;20208;-50
2022/06/11 05:03:49;;;;;;;3.63;3.00;;;;;;;;;;5084348;28;20195;-50
2022/06/11 05:06:16;;;;;;;3.83;3.03;;;;;;;;;;5084582;28;20263;-50
2022/06/11 05:08:43;;;;;;;3.33;2.70;;;;;;;;;;5063544;28;20241;-50
2022/06/11 05:11:09;;;;;;;4.13;2.60;;;;;;;;;;5081421;28;20563;-51
2022/06/11 05:13:35;;;;;;;4.77;3.10;;;;;;;;;;5079837;28;20179;-50
2022/06/11 05:16:02;;;;;;;3.33;2.80;;;;;;;;;;5069502;28;20187;-51
2022/06/11 05:18:29;;;;;;;3.33;2.73;;;;;;;;;;5088802;28;20183;-50
2022/06/11 05:20:55;;;;;;;4.73;2.83;;;;;;;;;;5065329;28;20279;-50
2022/06/11 05:23:30;;;;;;;4.73;2.87;;;;;;;;;;5066298;28;20224;-51
2022/06/11 05:25:56;;;;;;;4.87;3.13;;;;;;;;;;5065016;28;20188;-51
2022/06/11 05:28:28;;;;;;;4.83;2.97;;;;;;;;;;5070981;28;20585;-51
2022/06/11 05:30:56;;;;;;;4.67;3.20;;;;;;;;;;5092472;28;20174;-51
2022/06/11 05:33:23;;;;;;;5.13;3.33;;;;;;;;;;5064639;28;20190;-51
2022/06/11 05:35:56;;;;;;;5.30;3.13;;;;;;;;;;5081476;28;20175;-51
2022/06/11 05:38:24;;;;;;;2.87;2.60;;;;;;;;;;5078289;28;20270;-51
2022/06/11 05:40:51;;;;;;;2.73;2.50;;;;;;;;;;5059283;28;20945;-51
2022/06/11 05:43:25;;;;;;;4.17;3.20;;;;;;;;;;5076403;28;20229;-52
2022/06/11 05:46:11;;;;;;;3.67;2.97;;;;;;;;;;5048324;28;20759;-51
2022/06/11 05:48:39;;;;;;;3.63;2.67;;;;;;;;;;5061402;28;20208;-52
2022/06/11 05:51:06;;;;;;;4.20;2.90;;;;;;;;;;5051736;28;20224;-52
2022/06/11 05:53:34;;;;;;;5.40;3.00;;;;;;;;;;5042510;28;20206;-52
2022/06/11 05:56:02;;;;;;;5.10;3.57;;;;;;;;;;5048527;28;20193;-52
2022/06/11 05:58:31;;;;;;;3.90;2.87;;;;;;;;;;5061556;28;20658;-52
2022/06/11 06:00:58;;;;;;;3.93;3.10;;;;;;;;;;5062495;28;20571;-51
2022/06/11 06:03:24;;;;;;;3.83;3.20;;;;;;;;;;5047673;28;20715;-52
2022/06/11 06:05:50;;;;;;;3.53;2.73;;;;;;;;;;5048440;28;20178;-51
2022/06/11 06:08:17;;;;;;;3.70;2.80;;;;;;;;;;5043631;28;20205;-52
2022/06/11 06:10:43;;;;;;;4.57;2.93;;;;;;;;;;5044738;28;20293;-51
2022/06/11 06:15:54;;;;;;;3.10;2.73;;;;;;;;;;5063328;28;20216;-51
2022/06/11 06:18:21;;;;;;;3.93;2.60;;;;;;;;;;5057017;28;20177;-51
2022/06/11 06:20:47;;;;;;;3.53;2.90;;;;;;;;;;5051306;28;20198;-51
2022/06/11 06:23:14;;;;;;;6.53;3.13;;;;;;;;;;5044941;28;20190;-51
2022/06/11 06:25:40;;;;;;;5.50;2.97;;;;;;;;;;5032479;28;20187;-52
2022/06/11 06:28:07;;;;;;;3.50;3.07;;;;;;;;;;5054062;28;20218;-51
2022/06/11 06:30:34;;;;;;;4.53;2.73;;;;;;;;;;5044097;28;20181;-51
2022/06/11 06:33:00;;;;;;;5.40;2.60;;;;;;;;;;5028918;28;20610;-51
2022/06/11 06:35:27;;;;;;;3.43;2.90;;;;;;;;;;5062866;28;20616;-50
2022/06/11 06:37:53;;;;;;;3.37;2.80;;;;;;;;;;5044638;28;20254;-49
2022/06/11 06:40:19;;;;;;;4.83;2.90;;;;;;;;;;5062499;28;20190;-49
2022/06/11 06:42:46;;;;;;;4.30;2.70;;;;;;;;;;5044430;28;20652;-51
2022/06/11 06:45:12;;;;;;;4.30;2.93;;;;;;;;;;5047598;28;21346;-49
2022/06/11 06:47:38;;;;;;;3.97;3.03;;;;;;;;;;5066893;28;20230;-50
2022/06/11 06:50:08;;;;;;;3.00;2.70;;;;;;;;;;5054618;28;20641;-49
2022/06/11 06:52:34;;;;;;;4.47;2.70;;;;;;;;;;5063501;28;20213;-48
2022/06/11 06:55:00;;;;;;;4.17;2.57;;;;;;;;;;5071494;28;20757;-49
2022/06/11 06:57:26;;;;;;;3.90;2.73;;;;;;;;;;5089008;28;20870;-50
2022/06/11 06:59:53;;;;;;;3.93;3.00;;;;;;;;;;5059208;28;20229;-49
2022/06/11 07:02:19;;;;;;;5.27;3.13;;;;;;;;;;5056470;28;20646;-53
2022/06/11 07:04:46;;;;;;;5.17;3.27;;;;;;;;;;5058428;28;20595;-51
2022/06/11 07:07:17;;;;;;;7.00;3.10;;;;;;;;;;5058948;28;20692;-50
2022/06/11 07:09:43;;;;;;;5.93;3.47;;;;;;;;;;5071181;28;20190;-50
2022/06/11 07:12:10;;;;;;;4.00;3.20;;;;;;;;;;5069222;28;20480;-50
2022/06/11 07:14:36;;;;;;;3.03;2.73;;;;;;;;;;5045285;28;20189;-49
2022/06/11 07:17:06;;;;;;;3.23;2.47;;;;;;;;;;5043402;28;20291;-50
2022/06/11 07:19:35;;;;;;;3.43;2.77;;;;;;;;;;5065703;28;20637;-50
2022/06/11 07:22:03;;;;;;;3.57;2.60;;;;;;;;;;5059594;28;20190;-50
2022/06/11 07:24:32;;;;;;;3.50;2.67;;;;;;;;;;5053429;28;20212;-51
2022/06/11 07:27:00;;;;;;;3.07;2.67;;;;;;;;;;5050174;28;20280;-49
2022/06/11 07:29:29;;;;;;;3.77;2.67;;;;;;;;;;5050770;28;20487;-48
2022/06/11 07:31:56;;;;;;;5.27;2.67;;;;;;;;;;5074825;28;20211;-50
2022/06/11 07:34:23;;;;;;;2.93;2.60;;;;;;;;;;5064384;28;20610;-50
2022/06/11 07:36:49;;;;;;;3.37;2.33;;;;;;;;;;5069089;28;20189;-50
2022/06/11 07:39:15;;;;;;;7.03;3.27;;;;;;;;;;5072572;28;20195;-50
2022/06/11 07:41:42;;;;;;;4.70;2.40;;;;;;;;;;5047434;28;20696;-49
2022/06/11 07:44:08;;;;;;;4.50;2.60;;;;;;;;;;5077286;28;20721;-50
2022/06/11 07:46:35;;;;;;;4.30;2.47;;;;;;;;;;5085752;28;20407;-50
2022/06/11 07:49:01;;;;;;;5.53;2.97;;;;;;;;;;5065420;28;20184;-50
2022/06/11 07:51:28;;;;;;;5.00;2.87;;;;;;;;;;5086260;28;20208;-50
2022/06/11 07:53:54;;;;;;;4.93;2.70;;;;;;;;;;5066417;28;20190;-50
2022/06/11 07:56:21;;;;;;;4.27;2.63;;;;;;;;;;5065199;28;20572;-50
2022/06/11 07:58:49;;;;;;;6.17;2.53;;;;;;;;;;5082327;28;20337;-50
2022/06/11 08:01:15;;;;;;;5.50;2.60;;;;;;;;;;5072585;28;20661;-50
2022/06/11 08:03:42;;;;;;;3.30;2.40;;;;;;;;;;5060927;28;20293;-49
2022/06/11 08:06:08;;;;;;;4.20;3.00;;;;;;;;;;5086339;28;20223;-50
2022/06/11 08:08:35;;;;;;;4.30;3.10;;;;;;;;;;5066009;28;20554;-51
2022/06/11 08:11:02;;;;;;;3.77;2.73;;;;;;;;;;5048691;28;20188;-50
2022/06/11 08:13:28;;;;;;;3.60;2.40;;;;;;;;;;5068264;28;20191;-51
2022/06/11 08:15:58;;;;;;;5.73;2.83;;;;;;;;;;5090352;28;20625;-51
2022/06/11 08:18:30;;;;;;;3.97;2.60;;;;;;;;;;5084879;28;20280;-51
2022/06/11 08:20:56;;;;;;;3.03;2.40;;;;;;;;;;5081919;28;21825;-50
2022/06/11 08:23:23;;;;;;;2.90;2.13;;;;;;;;;;5061174;28;20502;-49
2022/06/11 08:25:49;;;;;;;5.30;2.30;;;;;;;;;;5063753;28;20622;-51
2022/06/11 08:28:17;;;;;;;4.83;2.80;;;;;;;;;;5071239;28;20178;-50
2022/06/11 08:30:43;;;;;;;4.63;2.87;;;;;;;;;;5089153;28;20207;-49
2022/06/11 08:33:10;;;;;;;4.00;2.67;;;;;;;;;;5079625;28;20243;-52
2022/06/11 08:35:40;;;;;;;3.93;2.67;;;;;;;;;;5064813;28;20268;-50
2022/06/11 08:38:06;;;;;;;5.20;3.47;;;;;;;;;;5063096;28;20184;-51
2022/06/11 08:40:35;;;;;;;6.60;3.60;;;;;;;;;;5060121;28;20184;-51
2022/06/11 08:43:04;;;;;;;4.63;3.23;;;;;;;;;;5081668;28;20495;-50
2022/06/11 08:45:43;;;;;;;6.57;4.03;;;;;;;;;;5077613;28;20790;-50
2022/06/11 08:48:19;;;;;;;5.13;3.43;;;;;;;;;;5066066;28;20233;-50
2022/06/11 08:50:54;;;;;;;6.53;3.27;;;;;;;;;;5077797;28;20192;-52
2022/06/11 08:53:22;;;;;;;4.57;3.23;;;;;;;;;;5064290;28;20176;-51
2022/06/11 08:55:48;;;;;;;5.37;3.57;;;;;;;;;;5069761;28;20316;-51
2022/06/11 08:58:15;;;;;;;4.87;3.60;;;;;;;;;;5062632;28;20190;-52
2022/06/11 09:00:46;;;;;;;7.80;3.83;;;;;;;;;;5084562;28;20260;-51
2022/06/11 09:03:29;;;;;;;6.73;3.47;;;;;;;;;;5084689;28;20177;-51
2022/06/11 09:06:01;;;;;;;10.07;4.40;;;;;;;;;;5067855;28;20564;-51
2022/06/11 09:08:46;;;;;;;6.77;4.10;;;;;;;;;;5070759;28;20216;-50
2022/06/11 09:11:13;;;;;;;5.93;4.30;;;;;;;;;;5082095;28;20175;-51
2022/06/11 09:13:52;;;;;;;7.97;3.90;;;;;;;;;;5065640;28;20194;-51
2022/06/11 09:16:36;;;;;;;6.33;4.00;;;;;;;;;;5067277;28;20190;-50
2022/06/11 09:19:22;;;;;;;5.07;3.60;;;;;;;;;;5064946;28;20575;-50
2022/06/11 09:22:14;;;;;;;3.80;3.43;;;;;;;;;;5083675;28;20539;-50
2022/06/11 09:24:50;;;;;;;6.47;4.07;;;;;;;;;;5063388;28;20209;-49
2022/06/11 09:27:25;;;;;;;6.43;3.73;;;;;;;;;;5065812;28;20525;-49
2022/06/11 09:30:02;;;;;;;5.73;3.57;;;;;;;;;;5064490;28;20477;-51
2022/06/11 09:32:35;;;;;;;9.10;4.10;;;;;;;;;;5087254;28;20199;-52
2022/06/11 09:35:19;;;;;;;4.70;3.80;;;;;;;;;;5084556;28;20533;-50
2022/06/11 09:38:04;;;;;;;4.40;4.00;;;;;;;;;;5041437;28;20655;-52
2022/06/11 09:40:50;;;;;;;5.23;4.37;;;;;;;;;;5065229;28;20705;-51
2022/06/11 09:43:16;;;;;;;9.10;4.60;;;;;;;;;;5085585;28;20189;-51
2022/06/11 09:45:48;;;;;;;4.37;3.77;;;;;;;;;;5079101;28;20569;-52
2022/06/11 09:48:26;;;;;;;6.83;4.40;;;;;;;;;;5036343;28;20187;-51
2022/06/11 09:50:55;;;;;;;7.17;4.33;;;;;;;;;;5067477;28;20200;-50
2022/06/11 09:53:40;;;;;;;5.43;3.40;;;;;;;;;;5044186;28;20179;-50
2022/06/11 09:56:06;;;;;;;3.90;3.17;;;;;;;;;;5062402;28;20187;-50
2022/06/11 09:58:53;;;;;;;5.00;3.47;;;;;;;;;;5066264;28;20176;-50
2022/06/11 10:01:28;;;;;;;6.33;4.17;;;;;;;;;;5064521;28;20505;-50
2022/06/11 10:03:57;;;;;;;4.27;3.30;;;;;;;;;;5065256;28;21456;-50
2022/06/11 10:06:39;;;;;;;4.70;3.63;;;;;;;;;;5047538;28;20204;-50
2022/06/11 10:09:10;;;;;;;5.10;3.30;;;;;;;;;;5059432;28;20191;-51
2022/06/11 10:11:39;;;;;;;5.00;3.40;;;;;;;;;;5078149;28;20253;-52
2022/06/11 10:14:30;;;;;;;5.00;4.13;;;;;;;;;;5042113;28;20186;-52
2022/06/11 10:17:15;;;;;;;5.23;3.60;;;;;;;;;;5064468;28;20581;-52
2022/06/11 10:19:51;;;;;;;5.10;3.17;;;;;;;;;;5064186;28;20172;-52
2022/06/11 10:22:44;;;;;;;3.70;3.23;;;;;;;;;;5048778;28;20242;-52
2022/06/11 10:25:19;;;;;;;3.40;3.10;;;;;;;;;;5035354;28;20253;-52
2022/06/11 10:27:49;;;;;;;6.37;3.63;;;;;;;;;;5055184;28;20184;-52
2022/06/11 10:30:31;;;;;;;4.07;3.33;;;;;;;;;;5077473;28;20678;-51
2022/06/11 10:32:58;;;;;;;5.80;3.30;;;;;;;;;;5054077;28;20230;-52
2022/06/11 10:35:29;;;;;;;3.90;3.20;;;;;;;;;;5055238;28;20643;-51
2022/06/11 10:38:21;;;;;;;7.37;3.70;;;;;;;;;;5068154;28;20215;-51
2022/06/11 10:40:50;;;;;;;3.83;3.43;;;;;;;;;;5037341;28;20671;-52
2022/06/11 10:43:25;;;;;;;8.63;4.37;;;;;;;;;;5054580;28;20171;-51
2022/06/11 10:45:51;;;;;;;6.97;4.33;;;;;;;;;;5056980;28;20245;-50
2022/06/11 10:48:22;;;;;;;5.53;3.97;;;;;;;;;;5060865;28;20522;-51
2022/06/11 10:50:49;;;;;;;3.80;3.50;;;;;;;;;;5038418;28;20192;-51
2022/06/11 10:53:22;;;;;;;7.77;4.00;;;;;;;;;;5053955;28;20187;-51
2022/06/11 10:56:12;;;;;;;6.67;3.87;;;;;;;;;;5046714;28;20200;-51
2022/06/11 10:58:44;;;;;;;10.53;3.80;;;;;;;;;;5065049;28;20622;-52
2022/06/11 11:01:17;;;;;;;5.07;4.20;;;;;;;;;;5041340;28;20773;-51
2022/06/11 11:03:48;;;;;;;5.70;3.70;;;;;;;;;;5067653;28;20197;-51
2022/06/11 11:06:26;;;;;;;5.07;3.90;;;;;;;;;;5050199;28;20180;-51
2022/06/11 11:09:01;;;;;;;5.53;4.23;;;;;;;;;;5045510;28;20181;-51
2022/06/11 11:11:31;;;;;;;6.47;3.83;;;;;;;;;;5052840;28;20173;-51
2022/06/11 11:14:05;;;;;;;5.33;3.70;;;;;;;;;;5065423;28;20271;-51
2022/06/11 11:16:32;;;;;;;5.23;3.80;;;;;;;;;;5056967;28;20554;-51
2022/06/11 11:19:04;;;;;;;7.43;4.40;;;;;;;;;;5066999;28;20501;-52
2022/06/11 11:21:36;;;;;;;6.10;4.27;;;;;;;;;;5069913;28;20350;-51
2022/06/11 11:24:13;;;;;;;5.97;3.80;;;;;;;;;;5059578;28;20200;-51
2022/06/11 11:26:58;;;;;;;4.67;3.70;;;;;;;;;;5056732;28;20172;-52
2022/06/11 11:29:29;;;;;;;5.37;3.77;;;;;;;;;;5063695;28;20865;-52
2022/06/11 11:32:06;;;;;;;5.73;4.07;;;;;;;;;;5046420;28;20187;-52
2022/06/11 11:34:57;;;;;;;6.80;4.37;;;;;;;;;;5067295;28;20180;-52
2022/06/11 11:37:23;;;;;;;7.47;3.93;;;;;;;;;;5065403;28;20176;-52
2022/06/11 11:39:51;;;;;;;4.77;3.40;;;;;;;;;;5045263;28;20185;-52
2022/06/11 11:42:19;;;;;;;4.43;2.87;;;;;;;;;;5063800;28;20222;-52
2022/06/11 11:44:50;;;;;;;4.87;3.00;;;;;;;;;;5042103;28;20221;-52
2022/06/11 11:47:19;;;;;;;3.93;3.40;;;;;;;;;;5067360;28;20180;-52
2022/06/11 11:49:56;;;;;;;7.43;3.30;;;;;;;;;;5056220;28;20182;-52
2022/06/11 11:52:24;;;;;;;6.90;3.53;;;;;;;;;;5054176;28;20204;-52
2022/06/11 11:55:00;;;;;;;8.10;3.57;;;;;;;;;;5058026;28;20350;-52
2022/06/11 11:57:29;;;;;;;5.17;3.43;;;;;;;;;;5074936;28;20232;-52
2022/06/11 11:59:58;;;;;;;3.70;2.57;;;;;;;;;;5045699;28;20660;-52
2022/06/11 12:02:26;;;;;;;5.00;3.03;;;;;;;;;;5070052;28;20172;-52
2022/06/11 12:05:01;;;;;;;3.23;2.17;;;;;;;;;;5049756;28;20568;-52
2022/06/11 12:07:40;;;;;;;4.73;2.83;;;;;;;;;;5074448;28;20494;-52
2022/06/11 12:10:17;;;;;;;2.73;2.40;;;;;;;;;;5071203;28;20184;-52
2022/06/11 12:12:49;;;;;;;3.70;2.40;;;;;;;;;;5084377;28;20263;-52
2022/06/11 12:15:20;;;;;;;3.20;2.30;;;;;;;;;;5053445;28;20180;-52
2022/06/11 12:17:49;;;;;;;4.20;2.53;;;;;;;;;;5050456;28;20208;-51
2022/06/11 12:20:28;;;;;;;4.17;3.77;;;;;;;;;;5066640;28;20177;-51
2022/06/11 12:22:59;;;;;;;3.70;2.47;;;;;;;;;;5070181;28;20169;-51
2022/06/11 12:25:41;;;;;;;3.70;2.40;;;;;;;;;;5048354;28;20211;-52
2022/06/11 12:28:13;;;;;;;4.23;2.70;;;;;;;;;;5060380;28;20767;-52
2022/06/11 12:30:39;;;;;;;2.97;2.40;;;;;;;;;;5077623;28;20184;-52
2022/06/11 12:33:12;;;;;;;3.47;2.13;;;;;;;;;;5052957;28;20205;-51
2022/06/11 12:36:02;;;;;;;4.87;2.40;;;;;;;;;;5047607;28;20176;-51
2022/06/11 12:38:47;;;;;;;7.53;3.13;;;;;;;;;;5050296;28;20188;-52
2022/06/11 12:41:22;;;;;;;3.93;2.47;;;;;;;;;;5066484;28;20187;-51
2022/06/11 12:44:00;;;;;;;2.47;2.13;;;;;;;;;;5032744;28;20232;-52
2022/06/11 12:46:38;;;;;;;7.90;2.67;;;;;;;;;;5083599;28;20195;-49
2022/06/11 12:49:40;;;;;;;6.40;2.07;;;;;;;;;;5048996;28;20187;-49
2022/06/11 12:52:25;;;;;;;3.73;2.13;;;;;;;;;;4980683;28;20633;-50
2022/06/11 12:55:05;;;;;;;6.80;2.23;;;;;;;;;;5071828;28;20276;-49
2022/06/11 12:57:41;;;;;;;4.03;2.47;;;;;;;;;;5084241;28;20182;-50
2022/06/11 13:00:16;;;;;;;4.77;2.17;;;;;;;;;;5088303;28;20241;-49
2022/06/11 13:03:05;;;;;;;4.07;2.67;;;;;;;;;;5066199;28;20181;-50
2022/06/11 13:05:40;;;;;;;4.50;2.53;;;;;;;;;;5053692;28;20293;-50
2022/06/11 13:08:12;;;;;;;4.13;2.37;;;;;;;;;;5059751;28;20176;-50
2022/06/11 13:10:43;;;;;;;3.40;2.50;;;;;;;;;;5082804;28;20180;-49
2022/06/11 13:13:28;;;;;;;3.43;2.30;;;;;;;;;;5067110;28;20189;-49
2022/06/11 13:16:13;;;;;;;4.33;2.43;;;;;;;;;;5065071;28;20348;-49
2022/06/11 13:18:56;;;;;;;5.33;2.53;;;;;;;;;;5056942;28;20183;-51
2022/06/11 13:21:31;;;;;;;6.10;2.80;;;;;;;;;;5105921;27;20194;-49
2022/06/11 13:24:16;;;;;;;3.13;1.90;;;;;;;;;;5064858;28;20202;-48
2022/06/11 13:26:52;;;;;;;3.60;2.57;;;;;;;;;;5086607;28;20217;-50
2022/06/11 13:29:37;;;;;;;4.60;2.60;;;;;;;;;;5084890;28;20702;-49
2022/06/11 13:32:04;;;;;;;4.50;2.53;;;;;;;;;;5078503;28;20214;-50
2022/06/11 13:34:41;;;;;;;3.30;2.23;;;;;;;;;;5085559;28;20198;-50
2022/06/11 13:37:23;;;;;;;2.30;2.10;;;;;;;;;;5083755;28;20622;-50
2022/06/11 13:39:55;;;;;;;2.53;2.33;;;;;;;;;;5083575;28;21292;-49
2022/06/11 13:42:41;;;;;;;2.47;1.80;;;;;;;;;;5086228;28;20666;-50
2022/06/11 13:45:20;;;;;;;3.13;2.00;;;;;;;;;;5094019;28;20704;-50
2022/06/11 13:47:59;;;;;;;2.33;1.93;;;;;;;;;;5087115;28;20181;-51
2022/06/11 13:50:28;;;;;;;3.73;2.37;;;;;;;;;;5105261;28;20201;-50
2022/06/11 13:55:40;;;;;;;2.43;2.20;;;;;;;;;;5104799;28;20270;-50
2022/06/11 13:58:09;;;;;;;2.80;2.00;;;;;;;;;;5106939;28;20519;-50
2022/06/11 14:00:47;;;;;;;2.33;2.10;;;;;;;;;;5101451;28;20174;-49
2022/06/11 14:03:32;;;;;;;5.13;3.90;;;;;;;;;;5103773;28;20672;-50
2022/06/11 14:06:01;;;;;;;2.83;2.00;;;;;;;;;;5067317;28;20210;-49
2022/06/11 14:08:53;;;;;;;3.65;2.00;;;;;;;;;;5095701;28;20768;-50
2022/06/11 14:11:39;;;;;;;4.47;2.80;;;;;;;;;;5055234;28;20522;-51
2022/06/11 14:14:26;;;;;;;2.50;2.30;;;;;;;;;;5085707;28;20395;-50
2022/06/11 14:16:52;;;;;;;5.43;2.40;;;;;;;;;;5105154;28;20585;-50
2022/06/11 14:19:18;;;;;;;3.47;2.30;;;;;;;;;;5085296;28;20197;-50
2022/06/11 14:21:47;;;;;;;4.87;2.50;;;;;;;;;;5087929;28;20186;-50
2022/06/11 14:24:33;;;;;;;6.13;2.50;;;;;;;;;;5102532;28;20783;-50
2022/06/11 14:26:59;;;;;;;4.87;2.57;;;;;;;;;;5105861;28;20180;-51
2022/06/11 14:29:35;;;;;;;3.93;2.10;;;;;;;;;;5103634;28;20704;-50
2022/06/11 14:32:01;;;;;;;3.37;1.97;;;;;;;;;;5082767;28;20177;-49
2022/06/11 14:34:32;;;;;;;3.23;2.07;;;;;;;;;;5080349;28;20178;-49
2022/06/11 14:37:04;;;;;;;4.70;2.27;;;;;;;;;;5088090;28;20170;-49
2022/06/11 14:39:36;;;;;;;2.73;2.10;;;;;;;;;;5088700;28;20221;-49
2022/06/11 14:42:32;;;;;;;2.37;2.17;;;;;;;;;;5089817;28;20210;-48
2022/06/11 14:45:17;;;;;;;3.50;2.63;;;;;;;;;;5024836;28;20222;-49
2022/06/11 14:47:59;;;;;;;3.17;1.90;;;;;;;;;;5107045;28;20187;-50
2022/06/11 14:50:43;;;;;;;3.67;2.07;;;;;;;;;;5087571;28;20200;-49
2022/06/11 14:53:15;;;;;;;2.10;1.90;;;;;;;;;;5080847;28;20175;-50
2022/06/11 14:55:42;;;;;;;3.03;1.60;;;;;;;;;;5097402;28;20256;-48
2022/06/11 14:58:11;;;;;;;3.43;2.33;;;;;;;;;;5106294;28;20552;-49
2022/06/11 15:00:43;;;;;;;4.93;2.70;;;;;;;;;;5106574;28;20232;-49
2022/06/11 15:03:28;;;;;;;3.53;1.73;;;;;;;;;;5089256;28;20180;-50
2022/06/11 15:06:03;;;;;;;2.37;2.03;;;;;;;;;;5088941;28;20190;-48
2022/06/11 15:08:42;;;;;;;1.93;1.60;;;;;;;;;;5085774;28;20180;-49
2022/06/11 15:11:20;;;;;;;3.93;1.80;;;;;;;;;;5083359;28;20249;-49
2022/06/11 15:13:48;;;;;;;3.23;1.97;;;;;;;;;;5111053;27;20184;-49
2022/06/11 15:16:24;;;;;;;7.27;2.50;;;;;;;;;;5091279;28;20189;-49